Time;durP1;ratioP1;P1;durP2;ratioP2;P2;SDS_P1;SDS_P2;PMS_P1;PMS_P2;Temp;Humidity;BMP_temperature;BMP_pressure;BME280_temperature;BME280_humidity;BME280_pressure;Samples;Min_cycle;Max_cycle;Signal;HPM_P1;HPM_P2
2022/11/19 00:01:54;;;;;;;4.82;4.43;;;-1.60;99.90;;;;;;4986623;28;20720;-69
2022/11/19 00:04:20;;;;;;;1.90;1.90;;;-1.60;99.90;;;;;;4976617;28;20318;-70
2022/11/19 00:06:49;;;;;;;2.97;2.88;;;-1.60;99.90;;;;;;4979415;28;20237;-69
2022/11/19 00:09:16;;;;;;;2.50;2.05;;;-1.60;99.90;;;;;;4980974;28;20240;-70
2022/11/19 00:14:27;;;;;;;4.00;1.13;;;-1.60;99.90;;;;;;4992045;28;20212;-69
2022/11/19 00:16:54;;;;;;;8.55;3.70;;;-1.60;99.90;;;;;;4973361;28;20264;-69
2022/11/19 00:19:21;;;;;;;2.30;2.08;;;-1.60;99.90;;;;;;4991758;28;20206;-69
2022/11/19 00:21:49;;;;;;;4.45;2.65;;;-1.70;99.90;;;;;;4994565;28;20225;-69
2022/11/19 00:24:15;;;;;;;1.27;1.27;;;-1.60;99.90;;;;;;4972657;28;20306;-70
2022/11/19 00:26:42;;;;;;;3.70;2.38;;;-1.60;99.90;;;;;;4976528;28;20229;-69
2022/11/19 00:29:10;;;;;;;1.80;1.80;;;-1.70;99.90;;;;;;4979051;28;20305;-69
2022/11/19 00:31:37;;;;;;;11.65;3.22;;;-1.70;99.90;;;;;;4973303;28;20225;-69
2022/11/19 00:34:04;;;;;;;2.47;2.25;;;-1.70;99.90;;;;;;4981175;28;20264;-70
2022/11/19 00:36:31;;;;;;;2.30;2.20;;;-1.70;99.90;;;;;;4975052;28;20233;-70
2022/11/19 00:38:59;;;;;;;2.25;2.15;;;-1.70;99.90;;;;;;4979713;28;20211;-69
2022/11/19 00:41:26;;;;;;;3.40;2.63;;;-1.70;99.90;;;;;;4981953;28;20218;-69
2022/11/19 00:43:53;;;;;;;4.22;1.83;;;-1.70;99.90;;;;;;4989817;28;20237;-69
2022/11/19 00:46:22;;;;;;;3.40;1.90;;;-1.70;99.90;;;;;;4973039;28;20357;-69
2022/11/19 00:48:50;;;;;;;1.00;1.00;;;-1.70;99.90;;;;;;4980577;28;20217;-70
2022/11/19 00:51:18;;;;;;;2.17;1.27;;;-1.80;99.90;;;;;;4988740;28;20603;-69
2022/11/19 00:53:45;;;;;;;0.55;0.55;;;-1.80;99.90;;;;;;4991513;28;20215;-69
2022/11/19 00:56:14;;;;;;;4.05;1.98;;;-1.80;99.90;;;;;;4991477;28;20209;-69
2022/11/19 00:58:42;;;;;;;1.83;1.65;;;-1.80;99.90;;;;;;4991553;28;20573;-70
2022/11/19 01:01:09;;;;;;;0.93;0.93;;;-1.80;99.90;;;;;;4982319;28;20667;-69
2022/11/19 01:03:37;;;;;;;3.20;3.10;;;-1.80;99.90;;;;;;4984474;28;20209;-70
2022/11/19 01:06:04;;;;;;;11.05;3.42;;;-1.80;99.90;;;;;;4987315;28;20677;-69
2022/11/19 01:08:31;;;;;;;2.55;2.42;;;-1.80;99.90;;;;;;4990833;28;20733;-69
2022/11/19 01:11:05;;;;;;;1.88;1.77;;;-1.80;99.90;;;;;;4978066;28;20210;-69
2022/11/19 01:13:36;;;;;;;2.85;1.38;;;-1.80;99.90;;;;;;4971524;28;20265;-70
2022/11/19 01:16:06;;;;;;;1.50;1.42;;;-1.90;99.90;;;;;;4971711;28;20202;-69
2022/11/19 01:18:32;;;;;;;1.02;1.02;;;-1.80;99.90;;;;;;4970688;28;20237;-69
2022/11/19 01:20:59;;;;;;;3.55;2.33;;;-1.90;99.90;;;;;;4976924;28;20235;-69
2022/11/19 01:23:26;;;;;;;3.08;2.97;;;-1.90;99.90;;;;;;4980200;28;20225;-69
2022/11/19 01:25:52;;;;;;;2.72;2.63;;;-1.90;99.90;;;;;;4989387;28;20208;-69
2022/11/19 01:28:19;;;;;;;1.05;1.05;;;-1.90;99.90;;;;;;4986018;28;20722;-69
2022/11/19 01:30:47;;;;;;;1.88;1.88;;;-1.90;99.90;;;;;;4978969;28;20312;-69
2022/11/19 01:33:14;;;;;;;2.05;2.05;;;-1.90;99.90;;;;;;4979315;28;20206;-69
2022/11/19 01:35:41;;;;;;;2.33;2.33;;;-1.90;99.90;;;;;;4970730;28;20208;-69
2022/11/19 01:38:08;;;;;;;1.17;1.17;;;-1.90;99.90;;;;;;4971248;28;20232;-69
2022/11/19 01:40:42;;;;;;;0.85;0.85;;;-1.90;99.90;;;;;;4976193;28;20223;-69
2022/11/19 01:43:11;;;;;;;1.70;1.70;;;-1.90;99.90;;;;;;4976825;28;20237;-69
2022/11/19 01:45:40;;;;;;;6.78;3.35;;;-2.00;99.90;;;;;;4980288;28;20201;-69
2022/11/19 01:48:12;;;;;;;3.22;2.35;;;-2.00;99.90;;;;;;4984640;28;20224;-69
2022/11/19 01:50:44;;;;;;;3.13;2.97;;;-2.00;99.90;;;;;;4985487;28;20200;-69
2022/11/19 01:53:13;;;;;;;2.10;2.00;;;-2.00;99.90;;;;;;4977438;28;20218;-69
2022/11/19 01:55:41;;;;;;;3.63;3.33;;;-2.00;99.90;;;;;;4979133;28;20713;-69
2022/11/19 01:58:08;;;;;;;1.90;1.90;;;-2.00;99.90;;;;;;4977903;28;20226;-69
2022/11/19 02:00:35;;;;;;;1.05;1.02;;;-2.00;99.90;;;;;;4975949;28;20232;-69
2022/11/19 02:03:02;;;;;;;4.97;2.30;;;-2.00;99.90;;;;;;4985494;28;20271;-69
2022/11/19 02:05:31;;;;;;;4.45;2.78;;;-2.10;99.90;;;;;;4978619;28;20216;-69
2022/11/19 02:07:58;;;;;;;0.90;0.80;;;-2.10;99.90;;;;;;4975772;28;20735;-69
2022/11/19 02:10:33;;;;;;;4.25;3.95;;;-2.20;99.90;;;;;;4978323;28;20219;-69
2022/11/19 02:13:10;;;;;;;2.20;2.08;;;-2.20;99.90;;;;;;4979205;28;20211;-69
2022/11/19 02:15:44;;;;;;;0.95;0.95;;;-2.20;99.90;;;;;;4979564;28;20205;-69
2022/11/19 02:18:30;;;;;;;2.85;2.70;;;-2.30;99.90;;;;;;4983885;28;20221;-69
2022/11/19 02:21:05;;;;;;;4.13;3.88;;;-2.30;99.90;;;;;;4983227;28;20204;-69
2022/11/19 02:24:00;;;;;;;2.08;1.98;;;-2.30;99.90;;;;;;4978136;28;20219;-69
2022/11/19 02:27:03;;;;;;;1.45;1.33;;;-2.30;99.90;;;;;;4978666;28;20255;-69
2022/11/19 02:30:09;;;;;;;0.80;0.80;;;-2.30;99.90;;;;;;4981185;28;20220;-69
2022/11/19 02:32:45;;;;;;;2.95;2.30;;;-2.40;99.90;;;;;;4917066;29;20694;-69
2022/11/19 02:35:21;;;;;;;3.10;3.00;;;-2.40;99.90;;;;;;4971457;28;20208;-69
2022/11/19 02:37:55;;;;;;;2.55;2.45;;;-2.40;99.90;;;;;;4981127;28;20236;-69
2022/11/19 02:40:25;;;;;;;1.20;1.20;;;-2.40;99.90;;;;;;4981562;28;20217;-69
2022/11/19 02:42:59;;;;;;;0.98;0.95;;;-2.40;99.90;;;;;;4977824;28;20232;-69
2022/11/19 02:45:32;;;;;;;1.27;1.27;;;-2.40;99.90;;;;;;4983725;28;20247;-69
2022/11/19 02:48:03;;;;;;;1.80;1.80;;;-2.40;99.90;;;;;;4970630;28;20286;-69
2022/11/19 02:50:34;;;;;;;1.40;1.40;;;-2.40;99.90;;;;;;4982059;28;20205;-69
2022/11/19 02:53:03;;;;;;;0.60;0.60;;;-2.40;99.90;;;;;;4975776;28;20201;-69
2022/11/19 02:55:30;;;;;;;2.78;2.67;;;-2.40;99.90;;;;;;4979551;28;20593;-69
2022/11/19 02:58:01;;;;;;;1.13;1.05;;;-2.40;99.90;;;;;;4978352;28;20232;-69
2022/11/19 03:06:14;;;;;;;0.80;0.80;;;-2.40;99.90;;;;;;4978763;28;20244;-69
2022/11/19 03:08:40;;;;;;;3.25;2.30;;;-2.40;99.90;;;;;;4978711;28;20218;-69
2022/11/19 03:11:15;;;;;;;2.80;1.50;;;-2.50;99.90;;;;;;4981428;28;20208;-69
2022/11/19 03:16:43;;;;;;;0.95;0.95;;;-2.50;99.90;;;;;;4973630;28;20641;-68
2022/11/19 03:19:36;;;;;;;1.77;1.77;;;-2.50;99.90;;;;;;4985171;28;20228;-68
2022/11/19 03:22:08;;;;;;;2.92;2.22;;;-2.40;99.90;;;;;;4963636;28;20239;-69
2022/11/19 03:24:38;;;;;;;2.05;2.05;;;-2.50;99.90;;;;;;4987692;28;20252;-69
2022/11/19 03:27:10;;;;;;;4.25;2.17;;;-2.40;99.90;;;;;;4992246;28;20236;-68
2022/11/19 03:29:41;;;;;;;5.50;3.85;;;-2.40;99.90;;;;;;4987902;28;20211;-68
2022/11/19 03:32:14;;;;;;;0.75;0.75;;;-2.40;99.90;;;;;;4983859;28;20209;-68
2022/11/19 03:34:44;;;;;;;1.95;1.95;;;-2.50;99.90;;;;;;4980610;28;20220;-68
2022/11/19 03:37:14;;;;;;;5.60;3.17;;;-2.50;99.90;;;;;;4986024;28;20585;-68
2022/11/19 03:39:42;;;;;;;6.88;3.15;;;-2.50;99.90;;;;;;4984669;28;20300;-69
2022/11/19 03:42:12;;;;;;;2.20;2.05;;;-2.50;99.90;;;;;;4980844;28;20224;-68
2022/11/19 03:44:43;;;;;;;3.40;3.08;;;-2.50;99.90;;;;;;4982784;28;20208;-68
2022/11/19 03:47:15;;;;;;;1.63;1.63;;;-2.50;99.90;;;;;;4983411;28;20227;-68
2022/11/19 03:49:45;;;;;;;1.15;1.15;;;-2.50;99.90;;;;;;4982267;28;20584;-68
2022/11/19 03:52:14;;;;;;;1.13;1.08;;;-2.50;99.90;;;;;;4982952;28;20219;-68
2022/11/19 03:54:42;;;;;;;0.88;0.88;;;-2.40;99.90;;;;;;4991366;28;20211;-68
2022/11/19 03:57:12;;;;;;;2.50;2.50;;;-2.40;99.90;;;;;;4983750;28;20226;-69
2022/11/19 03:59:39;;;;;;;1.48;1.48;;;-2.40;99.90;;;;;;4986436;28;20224;-68
2022/11/19 04:02:08;;;;;;;1.77;1.38;;;-2.40;99.90;;;;;;4986267;28;20282;-68
2022/11/19 04:04:37;;;;;;;2.83;2.72;;;-2.40;99.90;;;;;;4983687;28;20209;-68
2022/11/19 04:07:09;;;;;;;0.95;0.95;;;-2.40;99.90;;;;;;4980624;28;20279;-68
2022/11/19 04:09:36;;;;;;;0.80;0.80;;;-2.40;99.90;;;;;;4973717;28;20205;-68
2022/11/19 04:12:04;;;;;;;2.63;2.53;;;-2.40;99.90;;;;;;4981478;28;20197;-69
2022/11/19 04:14:31;;;;;;;0.85;0.85;;;-2.40;99.90;;;;;;4984464;28;20295;-69
2022/11/19 04:16:58;;;;;;;0.88;0.88;;;-2.40;99.90;;;;;;4982032;28;20711;-69
2022/11/19 04:19:24;;;;;;;1.38;1.38;;;-2.40;99.90;;;;;;4981831;28;20253;-68
2022/11/19 04:21:52;;;;;;;1.75;1.70;;;-2.40;99.90;;;;;;4983181;28;20232;-68
2022/11/19 04:24:19;;;;;;;2.55;1.75;;;-2.40;99.90;;;;;;4981067;28;20208;-68
2022/11/19 04:26:46;;;;;;;1.10;1.10;;;-2.40;99.90;;;;;;4976662;28;20229;-68
2022/11/19 04:29:12;;;;;;;0.40;0.40;;;-2.40;99.90;;;;;;4981524;28;20205;-68
2022/11/19 04:31:39;;;;;;;2.45;2.25;;;-2.40;99.90;;;;;;4982550;28;20206;-68
2022/11/19 04:34:06;;;;;;;1.63;1.50;;;-2.40;99.90;;;;;;4979009;28;20216;-69
2022/11/19 04:36:33;;;;;;;1.67;1.58;;;-2.40;99.90;;;;;;4980305;28;20233;-68
2022/11/19 04:39:01;;;;;;;3.13;2.83;;;-2.50;99.90;;;;;;4983599;28;20213;-68
2022/11/19 04:41:28;;;;;;;0.40;0.40;;;-2.40;99.90;;;;;;4977874;28;20210;-68
2022/11/19 04:43:55;;;;;;;0.77;0.77;;;-2.40;99.90;;;;;;4980320;28;20210;-69
2022/11/19 04:46:21;;;;;;;1.98;1.98;;;-2.50;99.90;;;;;;4982190;28;20205;-68
2022/11/19 04:48:48;;;;;;;1.60;1.50;;;-2.50;99.90;;;;;;4991630;28;20208;-68
2022/11/19 04:51:15;;;;;;;1.55;1.45;;;-2.50;99.90;;;;;;4982026;28;20300;-68
2022/11/19 04:53:42;;;;;;;2.58;2.00;;;-2.50;99.90;;;;;;4985567;28;20204;-68
2022/11/19 04:56:10;;;;;;;2.10;2.00;;;-2.50;99.90;;;;;;4988344;28;20208;-68
2022/11/19 04:58:37;;;;;;;1.05;1.05;;;-2.50;99.90;;;;;;4981445;28;20297;-68
2022/11/19 05:01:04;;;;;;;1.20;1.20;;;-2.50;99.90;;;;;;4978262;28;20216;-68
2022/11/19 05:03:31;;;;;;;1.05;1.05;;;-2.40;99.90;;;;;;4980663;28;20248;-68
2022/11/19 05:05:58;;;;;;;2.20;2.10;;;-2.50;99.90;;;;;;4977897;28;20212;-68
2022/11/19 05:08:25;;;;;;;1.50;1.38;;;-2.40;99.90;;;;;;4975452;28;20233;-68
2022/11/19 05:10:52;;;;;;;3.67;3.47;;;-2.40;99.90;;;;;;4980553;28;20213;-68
2022/11/19 05:13:20;;;;;;;1.70;1.70;;;-2.40;99.90;;;;;;4979733;28;20202;-68
2022/11/19 05:15:47;;;;;;;2.10;1.92;;;-2.40;99.90;;;;;;4981669;28;20210;-68
2022/11/19 05:18:14;;;;;;;2.05;2.05;;;-2.40;99.90;;;;;;4991078;28;20708;-68
2022/11/19 05:20:41;;;;;;;4.18;2.17;;;-2.40;99.90;;;;;;4975994;28;20583;-68
2022/11/19 05:23:08;;;;;;;3.13;3.10;;;-2.40;99.90;;;;;;4980344;28;20235;-68
2022/11/19 05:25:34;;;;;;;1.55;1.48;;;-2.40;99.90;;;;;;4972355;28;20690;-68
2022/11/19 05:28:01;;;;;;;1.30;1.30;;;-2.40;99.90;;;;;;4983850;28;20234;-68
2022/11/19 05:30:29;;;;;;;1.52;1.42;;;-2.40;99.90;;;;;;4985114;28;20259;-68
2022/11/19 05:32:56;;;;;;;2.30;2.20;;;-2.40;99.90;;;;;;4980995;28;20213;-68
2022/11/19 05:35:23;;;;;;;2.22;2.13;;;-2.50;99.90;;;;;;4971644;28;20208;-68
2022/11/19 05:37:50;;;;;;;1.85;1.77;;;-2.50;99.90;;;;;;4970155;28;20233;-68
2022/11/19 05:40:18;;;;;;;4.45;1.60;;;-2.50;99.90;;;;;;4973968;28;20207;-68
2022/11/19 05:42:44;;;;;;;4.38;2.78;;;-2.40;99.90;;;;;;4981729;28;20289;-68
2022/11/19 05:45:11;;;;;;;1.27;1.17;;;-2.40;99.90;;;;;;4980723;28;20205;-68
2022/11/19 05:47:40;;;;;;;1.55;1.13;;;-2.40;99.90;;;;;;4988660;23;20232;-70
2022/11/19 05:50:07;;;;;;;1.05;1.05;;;-2.50;99.90;;;;;;4971008;28;20205;-73
2022/11/19 05:52:33;;;;;;;2.67;2.47;;;-2.50;99.90;;;;;;4967970;28;20231;-70
2022/11/19 05:55:00;;;;;;;2.15;2.10;;;-2.40;99.90;;;;;;4960506;28;20304;-70
2022/11/19 05:57:27;;;;;;;1.85;1.58;;;-2.50;99.90;;;;;;4957730;28;20592;-71
2022/11/19 05:59:54;;;;;;;1.23;1.23;;;-2.50;99.90;;;;;;4965765;28;20201;-70
2022/11/19 06:02:21;;;;;;;1.23;1.23;;;-2.60;99.90;;;;;;4954494;28;20732;-71
2022/11/19 06:04:49;;;;;;;1.27;1.27;;;-2.60;99.90;;;;;;4967563;28;20220;-70
2022/11/19 06:07:15;;;;;;;1.50;1.40;;;-2.60;99.90;;;;;;4964759;28;20228;-70
2022/11/19 06:09:42;;;;;;;3.25;3.15;;;-2.60;99.90;;;;;;4957443;28;20204;-69
2022/11/19 06:12:09;;;;;;;1.77;1.75;;;-2.60;99.90;;;;;;4964543;28;20211;-71
2022/11/19 06:14:35;;;;;;;1.08;1.08;;;-2.60;99.90;;;;;;4960800;28;20206;-70
2022/11/19 06:17:02;;;;;;;2.45;2.35;;;-2.60;99.90;;;;;;4966063;28;20225;-70
2022/11/19 06:19:29;;;;;;;1.48;1.48;;;-2.60;99.90;;;;;;4965862;28;20209;-73
2022/11/19 06:21:57;;;;;;;7.40;2.40;;;-2.50;99.90;;;;;;4960341;28;20572;-70
2022/11/19 06:24:24;;;;;;;3.60;2.33;;;-2.50;99.90;;;;;;4960703;28;20201;-70
2022/11/19 06:26:51;;;;;;;1.40;1.40;;;-2.60;99.90;;;;;;4964557;28;20233;-70
2022/11/19 06:29:18;;;;;;;2.05;2.03;;;-2.60;99.90;;;;;;4958152;28;20569;-69
2022/11/19 06:31:45;;;;;;;0.50;0.50;;;-2.60;99.90;;;;;;4966173;28;20210;-69
2022/11/19 06:34:12;;;;;;;1.60;1.60;;;-2.60;99.90;;;;;;4955046;28;20205;-71
2022/11/19 06:36:39;;;;;;;2.30;2.20;;;-2.60;99.90;;;;;;4958922;28;20229;-69
2022/11/19 06:39:08;;;;;;;5.15;3.15;;;-2.60;99.90;;;;;;4967631;28;20202;-70
2022/11/19 06:41:35;;;;;;;2.53;2.47;;;-2.60;99.90;;;;;;4960902;28;20227;-69
2022/11/19 06:44:02;;;;;;;1.38;1.27;;;-2.60;99.90;;;;;;4957876;28;20232;-70
2022/11/19 06:46:29;;;;;;;5.35;2.72;;;-2.60;99.90;;;;;;4964074;28;20725;-71
2022/11/19 06:48:56;;;;;;;1.83;1.83;;;-2.60;99.90;;;;;;4966965;28;20216;-70
2022/11/19 06:51:23;;;;;;;2.17;2.08;;;-2.60;99.90;;;;;;4967301;28;20209;-70
2022/11/19 06:53:49;;;;;;;8.85;4.43;;;-2.60;99.90;;;;;;4965171;28;20217;-70
2022/11/19 06:56:18;;;;;;;3.55;3.55;;;-2.70;99.90;;;;;;4972652;28;20237;-70
2022/11/19 06:58:44;;;;;;;0.98;0.98;;;-2.70;99.90;;;;;;4969661;28;20212;-70
2022/11/19 07:01:13;;;;;;;0.52;0.52;;;-2.70;99.90;;;;;;4971475;28;20210;-70
2022/11/19 07:03:39;;;;;;;2.30;2.17;;;-2.70;99.90;;;;;;4970123;28;20306;-71
2022/11/19 07:06:07;;;;;;;1.08;1.08;;;-2.70;99.90;;;;;;4961864;28;20241;-74
2022/11/19 07:08:34;;;;;;;2.55;2.40;;;-2.70;99.90;;;;;;4968216;28;20220;-71
2022/11/19 07:11:24;;;;;;;0.80;0.80;;;-2.70;99.90;;;;;;4969729;28;20624;-73
2022/11/19 07:13:59;;;;;;;2.80;2.60;;;-2.70;99.90;;;;;;4980842;28;20196;-71
2022/11/19 07:16:28;;;;;;;1.80;1.75;;;-2.70;99.90;;;;;;4970941;28;20231;-71
2022/11/19 07:18:57;;;;;;;0.47;0.47;;;-2.80;99.90;;;;;;4963158;28;20206;-71
2022/11/19 07:21:24;;;;;;;2.47;2.30;;;-2.70;99.90;;;;;;4960779;28;20279;-70
2022/11/19 07:23:51;;;;;;;1.88;1.80;;;-2.70;99.90;;;;;;4965942;28;20262;-69
2022/11/19 07:26:18;;;;;;;1.48;1.38;;;-2.70;99.90;;;;;;4968445;28;20331;-70
2022/11/19 07:28:45;;;;;;;3.00;2.90;;;-2.70;99.90;;;;;;4969805;28;20204;-70
2022/11/19 07:31:13;;;;;;;3.42;3.22;;;-2.70;99.90;;;;;;4965334;28;20221;-70
2022/11/19 07:33:40;;;;;;;4.70;2.92;;;-2.70;99.90;;;;;;4977295;28;20200;-69
2022/11/19 07:36:09;;;;;;;4.07;3.63;;;-2.70;99.90;;;;;;4981551;28;20712;-70
2022/11/19 07:38:36;;;;;;;1.58;1.58;;;-2.70;99.90;;;;;;4979468;28;20220;-70
2022/11/19 07:42:47;;;;;;;3.22;3.03;;;-2.70;99.90;;;;;;4972850;28;20202;-69
2022/11/19 07:43:48;;;;;;;2.28;2.28;;;-2.60;99.90;;;;;;4974817;28;20237;-70
2022/11/19 07:46:16;;;;;;;2.73;2.73;;;-2.60;99.90;;;;;;4976217;28;20486;-70
2022/11/19 07:48:43;;;;;;;4.53;2.15;;;-2.60;99.90;;;;;;4991349;28;20209;-71
2022/11/19 07:51:10;;;;;;;4.00;3.65;;;-2.50;99.90;;;;;;4970975;28;20228;-70
2022/11/19 07:53:37;;;;;;;2.67;2.10;;;-2.50;99.90;;;;;;4958523;28;20232;-69
2022/11/19 07:56:04;;;;;;;3.25;3.05;;;-2.40;99.90;;;;;;4961389;28;20245;-71
2022/11/19 07:58:31;;;;;;;1.10;1.08;;;-2.40;99.90;;;;;;4963966;28;20223;-70
2022/11/19 08:00:57;;;;;;;11.20;5.18;;;-2.30;99.90;;;;;;4970878;28;20225;-72
2022/11/19 08:03:25;;;;;;;4.72;4.25;;;-2.30;99.90;;;;;;4964601;28;20227;-71
2022/11/19 08:05:52;;;;;;;1.27;1.27;;;-2.30;99.90;;;;;;4962786;28;20225;-73
2022/11/19 08:08:19;;;;;;;2.17;1.40;;;-2.20;99.90;;;;;;4965129;28;20215;-70
2022/11/19 08:10:45;;;;;;;5.55;3.63;;;-2.20;99.90;;;;;;4961254;28;20203;-71
2022/11/19 08:13:12;;;;;;;2.08;2.08;;;-2.10;99.90;;;;;;4965635;28;20202;-69
2022/11/19 08:15:39;;;;;;;2.75;2.35;;;-2.10;99.90;;;;;;4968754;28;20687;-70
2022/11/19 08:18:14;;;;;;;1.42;1.42;;;-2.00;99.90;;;;;;4972042;28;20209;-71
2022/11/19 08:20:44;;;;;;;3.03;2.45;;;-1.90;99.90;;;;;;4982923;28;20229;-71
2022/11/19 08:23:12;;;;;;;6.18;5.20;;;-1.80;99.90;;;;;;4974792;28;20229;-70
2022/11/19 08:25:39;;;;;;;4.63;2.70;;;-1.70;99.90;;;;;;4979930;28;20678;-69
2022/11/19 08:28:06;;;;;;;7.68;7.10;;;-1.60;99.90;;;;;;4976071;28;20230;-71
2022/11/19 08:30:33;;;;;;;5.65;5.30;;;-1.50;99.90;;;;;;4989010;28;20209;-71
2022/11/19 08:33:00;;;;;;;5.43;3.78;;;-1.40;99.90;;;;;;4973755;28;20202;-70
2022/11/19 08:35:27;;;;;;;4.20;3.80;;;-1.40;99.90;;;;;;4977864;28;20218;-71
2022/11/19 08:37:56;;;;;;;1.75;1.42;;;-1.30;99.90;;;;;;4986876;28;20225;-69
2022/11/19 08:40:24;;;;;;;5.85;5.18;;;-1.10;99.90;;;;;;4972209;28;20218;-70
2022/11/19 08:42:58;;;;;;;3.53;2.35;;;-1.00;99.90;;;;;;4977641;28;20230;-72
2022/11/19 08:45:26;;;;;;;5.90;2.72;;;-0.90;99.90;;;;;;4969296;28;20202;-72
2022/11/19 08:47:53;;;;;;;2.63;2.28;;;-0.70;99.90;;;;;;4976690;28;20238;-72
2022/11/19 08:50:20;;;;;;;5.47;4.93;;;-0.60;99.90;;;;;;4975444;28;20207;-70
2022/11/19 08:52:54;;;;;;;4.07;3.92;;;-0.40;99.90;;;;;;4975333;28;20207;-74
2022/11/19 08:55:21;;;;;;;1.80;1.80;;;-0.20;99.90;;;;;;4972096;28;20208;-72
2022/11/19 08:57:48;;;;;;;5.85;2.53;;;0.10;99.90;;;;;;4960108;28;20223;-70
2022/11/19 09:00:16;;;;;;;2.45;2.35;;;0.30;99.90;;;;;;4974653;28;20210;-72
2022/11/19 09:02:42;;;;;;;1.92;1.92;;;0.40;99.90;;;;;;4979467;28;20250;-70
2022/11/19 09:05:09;;;;;;;2.85;1.50;;;0.50;99.90;;;;;;4972065;28;20208;-72
2022/11/19 09:07:36;;;;;;;4.32;1.50;;;0.60;99.90;;;;;;4973329;28;20243;-71
2022/11/19 09:10:05;;;;;;;3.90;1.98;;;0.70;99.90;;;;;;4965984;28;20209;-70
2022/11/19 09:12:31;;;;;;;3.72;3.42;;;0.70;99.90;;;;;;4963712;28;20208;-71
2022/11/19 09:14:58;;;;;;;2.20;1.75;;;0.80;99.90;;;;;;4972834;28;20207;-71
2022/11/19 09:17:25;;;;;;;5.13;2.72;;;0.80;99.90;;;;;;4961022;28;20243;-71
2022/11/19 09:19:52;;;;;;;1.80;1.80;;;0.90;99.90;;;;;;4963954;28;20216;-70
2022/11/19 09:22:18;;;;;;;3.00;2.80;;;1.00;99.90;;;;;;4971397;28;20212;-71
2022/11/19 09:24:45;;;;;;;5.45;2.80;;;1.10;99.90;;;;;;4963930;28;20235;-70
2022/11/19 09:27:13;;;;;;;5.68;3.15;;;1.20;99.90;;;;;;4972158;28;20237;-70
2022/11/19 09:29:40;;;;;;;4.35;3.25;;;1.20;99.90;;;;;;4969673;28;20214;-71
2022/11/19 09:32:06;;;;;;;10.65;2.30;;;1.30;99.90;;;;;;4962674;28;20223;-71
2022/11/19 09:34:33;;;;;;;3.20;2.75;;;1.40;99.90;;;;;;4963034;28;20201;-72
2022/11/19 09:37:00;;;;;;;2.92;2.83;;;1.30;99.90;;;;;;4970308;28;20555;-70
2022/11/19 09:39:27;;;;;;;4.13;3.80;;;1.40;99.90;;;;;;4971769;28;20200;-70
2022/11/19 09:41:59;;;;;;;30.33;7.25;;;1.50;99.90;;;;;;4965561;28;20886;-70
2022/11/19 09:44:43;;;;;;;3.72;3.42;;;1.50;99.90;;;;;;4969236;28;20700;-72
2022/11/19 09:47:23;;;;;;;4.07;2.45;;;1.60;99.90;;;;;;4972007;28;20247;-70
2022/11/19 09:49:57;;;;;;;3.05;2.90;;;1.50;99.90;;;;;;4966507;28;20213;-71
2022/11/19 09:52:25;;;;;;;3.58;3.08;;;1.60;99.90;;;;;;4961270;28;20201;-70
2022/11/19 09:54:56;;;;;;;2.22;2.13;;;1.70;99.90;;;;;;4952916;29;20215;-71
2022/11/19 09:57:31;;;;;;;3.65;3.35;;;1.60;99.90;;;;;;4953141;29;20241;-71
2022/11/19 10:00:01;;;;;;;1.95;1.58;;;1.70;99.90;;;;;;4953553;29;20215;-71
2022/11/19 10:02:29;;;;;;;2.78;2.67;;;1.60;99.90;;;;;;4965679;28;20215;-71
2022/11/19 10:04:56;;;;;;;3.65;3.35;;;1.50;99.90;;;;;;4963485;28;20231;-69
2022/11/19 10:07:34;;;;;;;3.70;3.35;;;1.50;99.90;;;;;;4970148;28;20229;-69
2022/11/19 10:10:19;;;;;;;3.78;3.00;;;1.60;99.90;;;;;;4966078;28;20204;-71
2022/11/19 10:13:10;;;;;;;4.53;3.47;;;1.70;99.90;;;;;;4959970;28;20693;-71
2022/11/19 10:15:49;;;;;;;2.05;1.95;;;1.70;99.90;;;;;;4961359;28;20625;-71
2022/11/19 10:18:22;;;;;;;3.15;2.95;;;1.70;99.90;;;;;;4956996;28;20560;-69
2022/11/19 10:20:59;;;;;;;3.75;2.28;;;1.80;99.90;;;;;;4959240;28;20208;-71
2022/11/19 10:23:36;;;;;;;13.50;3.13;;;1.90;99.90;;;;;;4958617;28;20251;-69
2022/11/19 10:26:06;;;;;;;3.17;3.08;;;2.00;99.90;;;;;;4965016;28;20549;-70
2022/11/19 10:28:37;;;;;;;2.15;2.15;;;2.10;99.90;;;;;;4968630;28;20674;-70
2022/11/19 10:31:08;;;;;;;3.28;2.65;;;2.10;99.90;;;;;;4962584;28;20209;-69
2022/11/19 10:33:41;;;;;;;4.38;2.85;;;2.20;99.90;;;;;;4966917;28;20296;-71
2022/11/19 10:36:10;;;;;;;2.20;2.10;;;2.30;99.90;;;;;;4971268;28;20248;-71
2022/11/19 10:38:42;;;;;;;8.48;3.72;;;2.30;99.90;;;;;;4962714;28;20226;-69
2022/11/19 10:41:13;;;;;;;3.08;1.23;;;2.40;99.90;;;;;;4970303;28;20223;-71
2022/11/19 10:43:47;;;;;;;3.35;3.05;;;2.50;99.90;;;;;;4975335;28;20221;-70
2022/11/19 10:46:19;;;;;;;2.83;2.63;;;2.50;99.90;;;;;;4965124;28;20292;-71
2022/11/19 10:48:50;;;;;;;5.88;3.22;;;2.50;99.90;;;;;;4963443;28;20210;-71
2022/11/19 10:51:23;;;;;;;1.45;1.15;;;2.60;99.90;;;;;;4964050;28;20213;-71
2022/11/19 10:53:51;;;;;;;1.58;1.05;;;2.60;99.90;;;;;;4967186;28;20201;-71
2022/11/19 10:56:21;;;;;;;1.95;1.85;;;2.70;99.90;;;;;;4968535;28;20269;-72
2022/11/19 10:58:52;;;;;;;1.60;1.50;;;2.80;99.90;;;;;;4963461;28;20208;-70
2022/11/19 11:01:30;;;;;;;10.13;3.58;;;2.80;99.90;;;;;;4967974;28;20213;-72
2022/11/19 11:04:05;;;;;;;1.67;1.23;;;2.90;99.90;;;;;;4969514;28;20756;-70
2022/11/19 11:06:50;;;;;;;3.20;3.00;;;2.90;99.90;;;;;;4967913;28;20236;-70
2022/11/19 11:09:32;;;;;;;2.00;2.00;;;3.00;99.90;;;;;;4964399;28;20223;-70
2022/11/19 11:14:54;;;;;;;4.55;3.60;;;3.00;99.90;;;;;;4967331;28;20211;-71
2022/11/19 11:17:25;;;;;;;2.13;2.08;;;3.10;99.90;;;;;;4964127;28;20255;-70
2022/11/19 11:20:00;;;;;;;4.20;3.90;;;3.20;99.90;;;;;;4966966;28;20796;-70
2022/11/19 11:22:27;;;;;;;1.85;1.48;;;3.20;99.90;;;;;;4964743;28;20201;-70
2022/11/19 11:24:54;;;;;;;3.50;3.25;;;3.30;99.90;;;;;;4970540;28;20242;-71
2022/11/19 11:27:24;;;;;;;3.15;3.00;;;3.40;99.90;;;;;;4982289;28;20228;-71
2022/11/19 11:30:05;;;;;;;2.78;2.50;;;3.40;99.90;;;;;;4976336;28;20212;-72
2022/11/19 11:32:33;;;;;;;1.45;1.40;;;3.50;99.90;;;;;;4960903;28;20205;-70
2022/11/19 11:35:00;;;;;;;6.30;3.40;;;3.60;99.90;;;;;;4962787;28;20204;-70
2022/11/19 11:37:27;;;;;;;3.00;2.70;;;3.60;99.90;;;;;;4972218;28;20303;-70
2022/11/19 11:39:55;;;;;;;2.63;2.53;;;3.60;99.90;;;;;;4963870;28;20216;-70
2022/11/19 11:42:25;;;;;;;2.03;1.92;;;3.70;99.90;;;;;;4964540;28;20216;-70
2022/11/19 11:44:55;;;;;;;1.42;1.35;;;3.70;99.90;;;;;;4963853;28;20563;-71
2022/11/19 11:47:26;;;;;;;1.30;1.30;;;3.70;99.90;;;;;;4997960;23;20247;-71
2022/11/19 11:50:05;;;;;;;5.07;4.00;;;3.70;99.90;;;;;;4991653;28;20223;-71
2022/11/19 11:52:36;;;;;;;2.67;2.08;;;3.80;99.90;;;;;;4976927;28;20597;-69
2022/11/19 11:55:06;;;;;;;3.20;1.88;;;3.90;99.90;;;;;;4985721;28;20209;-69
2022/11/19 11:57:34;;;;;;;1.30;1.30;;;3.80;99.90;;;;;;4988397;28;20236;-69
2022/11/19 12:00:02;;;;;;;18.60;0.95;;;3.80;99.90;;;;;;4974399;28;20236;-69
2022/11/19 12:02:31;;;;;;;1.65;1.65;;;3.80;99.90;;;;;;4973218;28;20558;-69
2022/11/19 12:05:02;;;;;;;1.70;1.70;;;3.80;99.90;;;;;;4981489;28;20228;-68
2022/11/19 12:08:02;;;;;;;1.60;1.60;;;3.80;99.90;;;;;;4975133;28;20264;-69
2022/11/19 12:10:37;;;;;;;1.95;1.85;;;3.80;99.90;;;;;;4973828;28;20271;-70
2022/11/19 12:13:38;;;;;;;2.25;2.15;;;3.80;99.90;;;;;;4979556;28;20208;-68
2022/11/19 12:16:10;;;;;;;1.65;1.55;;;3.80;99.90;;;;;;4946437;28;20209;-68
2022/11/19 12:18:46;;;;;;;1.52;1.42;;;3.80;99.90;;;;;;4954487;28;20214;-68
2022/11/19 12:21:25;;;;;;;1.30;1.30;;;3.80;99.90;;;;;;4954120;28;20216;-68
2022/11/19 12:24:07;;;;;;;1.83;1.73;;;3.90;99.90;;;;;;4954673;28;20236;-69
2022/11/19 12:26:46;;;;;;;2.95;1.63;;;3.90;99.90;;;;;;4980329;28;20231;-70
2022/11/19 12:29:24;;;;;;;2.00;2.00;;;3.90;99.90;;;;;;4988977;28;20208;-69
2022/11/19 12:32:06;;;;;;;3.17;2.97;;;3.90;99.90;;;;;;4991991;28;20562;-69
2022/11/19 12:34:50;;;;;;;0.90;0.90;;;3.90;99.90;;;;;;4992085;28;20203;-69
2022/11/19 12:37:32;;;;;;;2.67;2.45;;;3.80;99.90;;;;;;4986596;28;20224;-69
2022/11/19 12:40:04;;;;;;;2.60;2.20;;;3.90;99.90;;;;;;4972900;28;20204;-69
2022/11/19 12:42:45;;;;;;;1.65;1.50;;;3.90;99.90;;;;;;4984017;28;20204;-70
2022/11/19 12:45:20;;;;;;;3.08;2.25;;;3.90;99.90;;;;;;4992735;28;20232;-70
2022/11/19 12:48:20;;;;;;;1.98;1.77;;;4.00;99.90;;;;;;4982214;28;20239;-70
2022/11/19 12:50:57;;;;;;;1.35;1.15;;;4.00;99.90;;;;;;4972921;28;20217;-69
2022/11/19 12:53:43;;;;;;;5.28;2.55;;;4.00;99.90;;;;;;4972308;28;20209;-70
2022/11/19 12:56:23;;;;;;;2.13;2.13;;;4.10;99.90;;;;;;4984125;28;20208;-70
2022/11/19 12:58:57;;;;;;;4.15;2.15;;;4.10;99.90;;;;;;4975105;28;20208;-70
2022/11/19 13:01:29;;;;;;;2.15;2.00;;;4.20;99.90;;;;;;4971870;28;20213;-70
2022/11/19 13:04:03;;;;;;;2.13;2.03;;;4.20;99.90;;;;;;4972570;28;20575;-70
2022/11/19 13:06:36;;;;;;;2.13;1.88;;;4.30;99.90;;;;;;4971835;28;20316;-70
2022/11/19 13:09:09;;;;;;;2.38;2.25;;;4.30;99.90;;;;;;4979960;28;20201;-70
2022/11/19 13:11:41;;;;;;;3.38;3.22;;;4.30;99.90;;;;;;4975398;28;20220;-70
2022/11/19 13:14:14;;;;;;;3.50;2.58;;;4.40;99.90;;;;;;4971945;28;20207;-70
2022/11/19 13:16:43;;;;;;;3.92;3.28;;;4.40;99.90;;;;;;4977719;28;20315;-70
2022/11/19 13:19:21;;;;;;;3.15;3.00;;;4.50;99.90;;;;;;4980628;28;20208;-69
2022/11/19 13:21:53;;;;;;;1.25;1.25;;;4.50;99.90;;;;;;4956451;28;20209;-70